Stockholm-Vasteras

Airport
ICAO code: 
ESOW
Summary
ICAO Region: 
EUR
Territory: 
Location: 
Västerås,
Elevation: 
21 ft
Coordinates: 
Aerial View: 
59° 35' 21.845" N, 16° 38' 0.961" E
Metar
Observation
ESOW 270250Z AUTO 20005KT 170V230 9999 FEW070/// SCT098/// 02/M01 Q0998
Station
Vasteras / Hasslo
Date/Time
2022-01-27 02:50:00
Wind direction
200°
Wind speed
05 kts
Lowest cloud amount
few clouds
Temperature
2°C
Dew point
-1°C
Humidity
80%
QNH
998 hPa
Weather condition
n/a

Description

Västerås Airport, now known as Stockholm Västerås Airport and originally as Hässlö Flygplats is located about 5 km east of Västerås city centre and about 110 km west of Stockholm, Sweden. Most movements are general aviation but since attracting some low cost operators, it has been renamed by the airport operator as 'Stockholm Västerås'. It was originally a Swedish Air Force base when it was called 'Hässlö Flygplats'.

Climatology

Humid Continental climate (Köppen climate classification Dfb) - Variable weather patterns and a large seasonal temperature variance. Summers are often warm and humid with frequent thunderstorms and winters can be very cold with frequent snowfall and persistent snow cover.

Runways

Designator Length Width Surface Rops
1/19 2581 50 ASP Yes/Yes
Airport map: 
Aerial View: 

SKYbrary Partners:

Safety knowledge contributed by: